Time;durP1;ratioP1;P1;durP2;ratioP2;P2;SDS_P1;SDS_P2;PMS_P1;PMS_P2;Temp;Humidity;BMP_temperature;BMP_pressure;BME280_temperature;BME280_humidity;BME280_pressure;Samples;Min_cycle;Max_cycle;Signal;HPM_P1;HPM_P2
2023/09/12 00:00:30;;;;;;;174.50;160.07;;;;;;;;;;5018528;28;20026;-55
2023/09/12 00:02:55;;;;;;;221.32;204.77;;;;;;;;;;5012700;28;20056;-56
2023/09/12 00:05:20;;;;;;;99.33;91.87;;;;;;;;;;5021390;28;20064;-57
2023/09/12 00:07:46;;;;;;;79.77;73.20;;;;;;;;;;5019411;28;20476;-57
2023/09/12 00:10:11;;;;;;;92.23;86.00;;;;;;;;;;5017635;28;20034;-56
2023/09/12 00:12:36;;;;;;;84.03;78.83;;;;;;;;;;5013946;28;20315;-56
2023/09/12 00:15:04;;;;;;;154.00;143.67;;;;;;;;;;5018736;28;20104;-56
2023/09/12 00:17:29;;;;;;;106.32;98.22;;;;;;;;;;5021692;28;20050;-56
2023/09/12 00:19:54;;;;;;;88.78;82.22;;;;;;;;;;5020002;28;20433;-56
2023/09/12 00:22:19;;;;;;;129.85;120.80;;;;;;;;;;5014961;28;20025;-57
2023/09/12 00:24:44;;;;;;;88.10;81.67;;;;;;;;;;5024927;28;20112;-56
2023/09/12 00:27:09;;;;;;;85.22;79.68;;;;;;;;;;5023393;28;20021;-57
2023/09/12 00:29:35;;;;;;;70.93;65.83;;;;;;;;;;5024342;28;20029;-56
2023/09/12 00:32:00;;;;;;;250.95;234.00;;;;;;;;;;5026657;28;20022;-57
2023/09/12 00:34:25;;;;;;;54.47;50.73;;;;;;;;;;5018695;28;20083;-56
2023/09/12 00:36:50;;;;;;;94.27;88.03;;;;;;;;;;5019918;28;20036;-56
2023/09/12 00:39:15;;;;;;;67.72;63.10;;;;;;;;;;5020422;28;20054;-56
2023/09/12 00:41:40;;;;;;;63.40;59.00;;;;;;;;;;5016442;28;20370;-57
2023/09/12 00:44:06;;;;;;;133.67;124.07;;;;;;;;;;5024010;28;20022;-56
2023/09/12 00:46:31;;;;;;;69.50;64.47;;;;;;;;;;5020946;28;20025;-57
2023/09/12 00:48:57;;;;;;;72.95;68.20;;;;;;;;;;5015613;28;20092;-56
2023/09/12 00:51:24;;;;;;;82.65;76.95;;;;;;;;;;5019649;28;20026;-57
2023/09/12 00:53:49;;;;;;;70.40;65.18;;;;;;;;;;5015531;28;20026;-56
2023/09/12 00:56:14;;;;;;;71.57;66.27;;;;;;;;;;5013590;28;20037;-56
2023/09/12 00:58:40;;;;;;;90.73;84.17;;;;;;;;;;5029358;28;20492;-56
2023/09/12 01:01:05;;;;;;;70.57;65.68;;;;;;;;;;5022354;28;20064;-55
2023/09/12 01:03:30;;;;;;;74.67;69.10;;;;;;;;;;5013081;28;20026;-55
2023/09/12 01:05:57;;;;;;;77.72;71.82;;;;;;;;;;5023936;28;20033;-55
2023/09/12 01:08:22;;;;;;;105.65;98.53;;;;;;;;;;5027338;28;20024;-55
2023/09/12 01:10:48;;;;;;;141.70;131.87;;;;;;;;;;5025410;28;20025;-56
2023/09/12 01:13:14;;;;;;;77.50;72.28;;;;;;;;;;5019980;28;20358;-56
2023/09/12 01:15:39;;;;;;;84.35;78.78;;;;;;;;;;5023520;28;20036;-56
2023/09/12 01:18:04;;;;;;;181.07;168.23;;;;;;;;;;5020528;28;20021;-56
2023/09/12 01:20:31;;;;;;;95.27;89.20;;;;;;;;;;5018170;28;20025;-56
2023/09/12 01:23:05;;;;;;;80.75;75.30;;;;;;;;;;5016116;28;20823;-55
2023/09/12 01:25:39;;;;;;;138.52;129.00;;;;;;;;;;5018788;28;20022;-56
2023/09/12 01:28:05;;;;;;;68.88;64.10;;;;;;;;;;5015851;28;20465;-56
2023/09/12 01:30:32;;;;;;;156.00;145.57;;;;;;;;;;5014630;28;20057;-56
2023/09/12 01:32:57;;;;;;;67.80;63.00;;;;;;;;;;5018783;28;20048;-55
2023/09/12 01:35:22;;;;;;;198.53;185.07;;;;;;;;;;5020192;28;20509;-57
2023/09/12 01:37:47;;;;;;;175.83;164.17;;;;;;;;;;5013347;28;20018;-57
2023/09/12 01:40:15;;;;;;;64.85;60.28;;;;;;;;;;5014858;28;20100;-56
2023/09/12 01:42:41;;;;;;;159.60;148.40;;;;;;;;;;5014899;28;20026;-56
2023/09/12 01:45:09;;;;;;;132.05;122.57;;;;;;;;;;5013541;28;20045;-56
2023/09/12 01:47:34;;;;;;;60.00;55.72;;;;;;;;;;5012641;28;20014;-56
2023/09/12 01:50:00;;;;;;;91.90;85.75;;;;;;;;;;5014106;28;20033;-56
2023/09/12 01:52:26;;;;;;;72.70;67.90;;;;;;;;;;5020386;28;20025;-56
2023/09/12 01:54:52;;;;;;;116.65;107.63;;;;;;;;;;5019360;28;20052;-56
2023/09/12 01:57:20;;;;;;;84.82;78.95;;;;;;;;;;5014589;28;20026;-57
2023/09/12 01:59:46;;;;;;;98.80;90.68;;;;;;;;;;5019661;28;20036;-57
2023/09/12 02:02:11;;;;;;;179.25;165.18;;;;;;;;;;5015055;28;20025;-57
2023/09/12 02:04:36;;;;;;;66.97;61.97;;;;;;;;;;5025509;28;20025;-57
2023/09/12 02:07:02;;;;;;;61.20;57.10;;;;;;;;;;5020771;28;20068;-56
2023/09/12 02:09:27;;;;;;;196.67;183.10;;;;;;;;;;5023020;28;20068;-57
2023/09/12 02:11:52;;;;;;;197.13;184.37;;;;;;;;;;5021740;28;20076;-56
2023/09/12 02:14:20;;;;;;;134.50;125.17;;;;;;;;;;5016804;28;20279;-57
2023/09/12 02:16:45;;;;;;;69.95;64.93;;;;;;;;;;5013038;28;20033;-56
2023/09/12 02:19:10;;;;;;;202.53;189.10;;;;;;;;;;5017703;28;20362;-55
2023/09/12 02:21:35;;;;;;;57.97;53.35;;;;;;;;;;5016139;28;21304;-56
2023/09/12 02:24:01;;;;;;;131.80;123.00;;;;;;;;;;5026075;28;20021;-56
2023/09/12 02:26:26;;;;;;;102.78;95.35;;;;;;;;;;5016382;28;20128;-56
2023/09/12 02:28:51;;;;;;;50.93;47.37;;;;;;;;;;5018125;28;20041;-56
2023/09/12 02:31:16;;;;;;;51.35;47.70;;;;;;;;;;5015279;28;20033;-56
2023/09/12 02:33:42;;;;;;;47.33;43.70;;;;;;;;;;5019902;28;20203;-56
2023/09/12 02:36:07;;;;;;;46.88;43.28;;;;;;;;;;5013744;28;20036;-56
2023/09/12 02:38:32;;;;;;;56.63;52.40;;;;;;;;;;5013419;28;20072;-56
2023/09/12 02:40:57;;;;;;;203.07;188.87;;;;;;;;;;5010963;28;20070;-56
2023/09/12 02:43:23;;;;;;;100.93;93.50;;;;;;;;;;5011861;28;20786;-55
2023/09/12 02:45:48;;;;;;;65.13;60.88;;;;;;;;;;5022160;28;20485;-56
2023/09/12 02:48:13;;;;;;;55.83;51.90;;;;;;;;;;5009998;28;20068;-56
2023/09/12 02:50:38;;;;;;;69.60;64.93;;;;;;;;;;5015049;28;20039;-56
2023/09/12 02:53:04;;;;;;;58.55;54.50;;;;;;;;;;5016224;28;20543;-57
2023/09/12 02:55:29;;;;;;;53.60;49.80;;;;;;;;;;5019107;28;20401;-57
2023/09/12 02:57:54;;;;;;;68.88;63.47;;;;;;;;;;5014062;28;20022;-57
2023/09/12 03:00:19;;;;;;;59.97;55.90;;;;;;;;;;5017534;28;20061;-57
2023/09/12 03:02:45;;;;;;;58.47;54.00;;;;;;;;;;5010891;28;20045;-58
2023/09/12 03:05:10;;;;;;;65.47;60.90;;;;;;;;;;5018737;28;20528;-58
2023/09/12 03:07:35;;;;;;;58.37;53.60;;;;;;;;;;5017951;28;20469;-58
2023/09/12 03:10:00;;;;;;;62.53;58.33;;;;;;;;;;5010542;28;20022;-57
2023/09/12 03:12:25;;;;;;;84.28;78.85;;;;;;;;;;5010765;28;20061;-57
2023/09/12 03:14:50;;;;;;;124.80;116.23;;;;;;;;;;5015752;28;20029;-58
2023/09/12 03:17:15;;;;;;;71.97;66.83;;;;;;;;;;5010260;28;20056;-58
2023/09/12 03:19:41;;;;;;;92.43;86.40;;;;;;;;;;5009812;28;20037;-57
2023/09/12 03:22:06;;;;;;;76.60;71.20;;;;;;;;;;5016882;28;20586;-57
2023/09/12 03:24:31;;;;;;;55.00;50.95;;;;;;;;;;5016669;28;20026;-57
2023/09/12 03:26:56;;;;;;;214.00;199.07;;;;;;;;;;5022551;28;20022;-57
2023/09/12 03:29:22;;;;;;;72.90;67.63;;;;;;;;;;5021008;28;21774;-57
2023/09/12 03:31:47;;;;;;;199.80;186.40;;;;;;;;;;5015211;28;20456;-58
2023/09/12 03:34:13;;;;;;;153.83;143.37;;;;;;;;;;5009792;28;20172;-58
2023/09/12 03:36:38;;;;;;;100.95;94.22;;;;;;;;;;5016169;28;20030;-58
2023/09/12 03:39:05;;;;;;;139.47;130.53;;;;;;;;;;5010431;28;20033;-58
2023/09/12 03:41:30;;;;;;;115.45;107.45;;;;;;;;;;5022602;28;20018;-58
2023/09/12 03:43:56;;;;;;;112.47;104.63;;;;;;;;;;5020096;28;20813;-59
2023/09/12 03:46:21;;;;;;;71.35;66.18;;;;;;;;;;5014802;28;20582;-58
2023/09/12 03:48:46;;;;;;;79.63;74.17;;;;;;;;;;5024044;28;20492;-58
2023/09/12 03:51:12;;;;;;;62.17;57.90;;;;;;;;;;5024677;28;20428;-58
2023/09/12 03:53:37;;;;;;;229.23;212.40;;;;;;;;;;5022180;28;20037;-58
2023/09/12 03:56:02;;;;;;;71.87;66.53;;;;;;;;;;5020867;28;20084;-58
2023/09/12 03:58:27;;;;;;;75.07;70.03;;;;;;;;;;5020464;28;20025;-58
2023/09/12 04:00:53;;;;;;;235.27;218.30;;;;;;;;;;5020305;28;20026;-59
2023/09/12 04:03:18;;;;;;;189.70;177.07;;;;;;;;;;5023660;28;20390;-58
2023/09/12 04:05:43;;;;;;;184.93;172.17;;;;;;;;;;5025383;28;20021;-59
2023/09/12 04:08:08;;;;;;;78.93;73.67;;;;;;;;;;5016766;28;20048;-59
2023/09/12 04:10:33;;;;;;;60.28;56.03;;;;;;;;;;5017810;28;20080;-58
2023/09/12 04:12:58;;;;;;;271.53;253.30;;;;;;;;;;5028851;28;20503;-59
2023/09/12 04:15:23;;;;;;;104.43;97.07;;;;;;;;;;5020823;28;20033;-58
2023/09/12 04:17:49;;;;;;;162.60;151.67;;;;;;;;;;5014952;28;20389;-58
2023/09/12 04:20:14;;;;;;;215.50;201.10;;;;;;;;;;5013092;28;20030;-59
2023/09/12 04:22:40;;;;;;;152.52;142.18;;;;;;;;;;5019167;28;20025;-58
2023/09/12 04:25:06;;;;;;;134.40;125.03;;;;;;;;;;5015631;28;20083;-57
2023/09/12 04:27:31;;;;;;;130.65;122.25;;;;;;;;;;5023804;28;20021;-58
2023/09/12 04:29:56;;;;;;;96.87;90.60;;;;;;;;;;5018514;28;20037;-58
2023/09/12 04:32:23;;;;;;;62.28;58.05;;;;;;;;;;5010982;28;20037;-58
2023/09/12 04:34:48;;;;;;;111.15;104.35;;;;;;;;;;5017126;28;20370;-58
2023/09/12 04:37:13;;;;;;;115.65;107.93;;;;;;;;;;5006296;28;20094;-58
2023/09/12 04:39:38;;;;;;;55.03;51.23;;;;;;;;;;5011798;28;20103;-57
2023/09/12 04:42:04;;;;;;;77.30;72.03;;;;;;;;;;5018130;28;22504;-58
2023/09/12 04:44:30;;;;;;;128.80;119.88;;;;;;;;;;5014761;28;20049;-57
2023/09/12 04:46:55;;;;;;;50.20;46.85;;;;;;;;;;5015481;28;20025;-58
2023/09/12 04:49:21;;;;;;;56.25;51.97;;;;;;;;;;5012858;28;20037;-58
2023/09/12 04:51:46;;;;;;;130.90;122.07;;;;;;;;;;5015196;28;20054;-57
2023/09/12 04:54:11;;;;;;;43.45;40.20;;;;;;;;;;5019114;28;20092;-58
2023/09/12 04:56:36;;;;;;;120.27;112.10;;;;;;;;;;5016874;28;20029;-58
2023/09/12 04:59:02;;;;;;;109.03;102.03;;;;;;;;;;5019693;28;20036;-57
2023/09/12 05:01:27;;;;;;;99.35;91.97;;;;;;;;;;5020434;28;20022;-57
2023/09/12 05:03:52;;;;;;;126.37;117.83;;;;;;;;;;5017177;28;20037;-57
2023/09/12 05:06:17;;;;;;;80.20;74.80;;;;;;;;;;5024520;28;20041;-58
2023/09/12 05:08:42;;;;;;;56.37;52.30;;;;;;;;;;5013605;28;20121;-58
2023/09/12 05:11:08;;;;;;;78.10;72.82;;;;;;;;;;5015015;28;20445;-58
2023/09/12 05:13:33;;;;;;;114.47;106.47;;;;;;;;;;5013819;28;20101;-58
2023/09/12 05:15:58;;;;;;;50.73;47.13;;;;;;;;;;5014216;28;20014;-58
2023/09/12 05:18:24;;;;;;;170.25;158.23;;;;;;;;;;5018947;28;20033;-58
2023/09/12 05:20:49;;;;;;;41.57;38.33;;;;;;;;;;5022214;28;20041;-58
2023/09/12 05:23:14;;;;;;;88.18;81.88;;;;;;;;;;5012104;28;20105;-58
2023/09/12 05:25:39;;;;;;;63.77;59.33;;;;;;;;;;5019449;28;20022;-58
2023/09/12 05:28:05;;;;;;;92.23;85.53;;;;;;;;;;5017063;28;20028;-59
2023/09/12 05:30:30;;;;;;;113.47;104.80;;;;;;;;;;5013718;28;20167;-57
2023/09/12 05:32:55;;;;;;;67.72;63.35;;;;;;;;;;5023997;28;20594;-58
2023/09/12 05:35:20;;;;;;;99.23;91.60;;;;;;;;;;5017332;28;20049;-57
2023/09/12 05:37:46;;;;;;;95.83;88.80;;;;;;;;;;5030249;28;20160;-57
2023/09/12 05:40:11;;;;;;;73.10;68.40;;;;;;;;;;5022123;28;20049;-57
2023/09/12 05:42:36;;;;;;;99.43;92.47;;;;;;;;;;5021545;28;20041;-57
2023/09/12 05:45:01;;;;;;;62.30;58.07;;;;;;;;;;5016181;28;20010;-57
2023/09/12 05:47:27;;;;;;;135.00;125.75;;;;;;;;;;5020306;28;20025;-57
2023/09/12 05:49:52;;;;;;;224.03;208.23;;;;;;;;;;5015493;28;20037;-57
2023/09/12 05:52:17;;;;;;;68.75;64.05;;;;;;;;;;5022860;28;20440;-57
2023/09/12 05:54:42;;;;;;;64.67;60.17;;;;;;;;;;5029854;28;20568;-57
2023/09/12 05:57:07;;;;;;;151.57;141.98;;;;;;;;;;5021992;28;20021;-57
2023/09/12 05:59:36;;;;;;;94.13;87.72;;;;;;;;;;5012270;28;20056;-57
2023/09/12 06:02:01;;;;;;;120.20;111.70;;;;;;;;;;5018560;28;20400;-57
2023/09/12 06:04:26;;;;;;;58.97;55.10;;;;;;;;;;5011949;28;20101;-56
2023/09/12 06:06:51;;;;;;;80.93;75.43;;;;;;;;;;5010728;28;20389;-57
2023/09/12 06:09:17;;;;;;;123.77;114.73;;;;;;;;;;5022716;28;20035;-57
2023/09/12 06:11:42;;;;;;;130.52;121.63;;;;;;;;;;5023512;28;20056;-57
2023/09/12 06:14:07;;;;;;;223.73;208.67;;;;;;;;;;5017603;28;20065;-57
2023/09/12 06:16:32;;;;;;;142.60;133.00;;;;;;;;;;5017616;28;20021;-57
2023/09/12 06:18:57;;;;;;;179.27;165.67;;;;;;;;;;5017458;28;20013;-58
2023/09/12 06:21:22;;;;;;;120.30;112.37;;;;;;;;;;5016142;28;20029;-57
2023/09/12 06:23:49;;;;;;;237.90;221.07;;;;;;;;;;5013921;28;20109;-57
2023/09/12 06:26:14;;;;;;;92.90;86.43;;;;;;;;;;5011434;28;20064;-58
2023/09/12 06:28:39;;;;;;;117.85;109.70;;;;;;;;;;5014475;28;20489;-57
2023/09/12 06:31:07;;;;;;;176.27;165.48;;;;;;;;;;5018602;28;20029;-58
2023/09/12 06:33:32;;;;;;;130.75;121.57;;;;;;;;;;5010883;28;20036;-57
2023/09/12 06:35:57;;;;;;;159.73;148.17;;;;;;;;;;5020698;28;20026;-56
2023/09/12 06:38:23;;;;;;;100.57;93.93;;;;;;;;;;5011178;28;20037;-57
2023/09/12 06:40:48;;;;;;;100.88;94.07;;;;;;;;;;5012759;28;20026;-57
2023/09/12 06:43:14;;;;;;;85.00;79.30;;;;;;;;;;5010522;28;20061;-58
2023/09/12 06:45:42;;;;;;;107.50;100.22;;;;;;;;;;5022071;28;20044;-57
2023/09/12 06:48:08;;;;;;;113.10;105.75;;;;;;;;;;5014181;28;20052;-57
2023/09/12 06:50:33;;;;;;;154.93;142.13;;;;;;;;;;5017752;28;20029;-55
2023/09/12 06:52:58;;;;;;;97.43;91.40;;;;;;;;;;5015493;28;20018;-55
2023/09/12 06:55:24;;;;;;;101.88;95.50;;;;;;;;;;5010330;28;20026;-55
2023/09/12 06:57:49;;;;;;;137.27;128.05;;;;;;;;;;5012091;28;20060;-58
2023/09/12 07:00:14;;;;;;;106.47;98.97;;;;;;;;;;5011936;28;20236;-59
2023/09/12 07:02:40;;;;;;;204.32;189.30;;;;;;;;;;5020240;28;20056;-57
2023/09/12 07:05:05;;;;;;;88.03;82.47;;;;;;;;;;5017137;28;20029;-58
2023/09/12 07:07:30;;;;;;;102.28;95.00;;;;;;;;;;5011027;28;20022;-58
2023/09/12 07:09:56;;;;;;;168.55;156.63;;;;;;;;;;5012752;28;20485;-58
2023/09/12 07:12:21;;;;;;;170.73;158.77;;;;;;;;;;5009432;28;20160;-58
2023/09/12 07:14:46;;;;;;;200.23;187.00;;;;;;;;;;5012076;28;20531;-58
2023/09/12 07:17:11;;;;;;;197.53;182.53;;;;;;;;;;5017100;28;20021;-57
2023/09/12 07:19:36;;;;;;;88.57;82.97;;;;;;;;;;5016021;28;20038;-57
2023/09/12 07:22:01;;;;;;;143.93;133.90;;;;;;;;;;5013549;28;20025;-57
2023/09/12 07:24:27;;;;;;;135.87;126.60;;;;;;;;;;5013796;28;20013;-58
2023/09/12 07:26:52;;;;;;;113.47;105.97;;;;;;;;;;5016689;28;20075;-57
2023/09/12 07:29:17;;;;;;;127.00;117.90;;;;;;;;;;5026037;28;20067;-58
2023/09/12 07:31:42;;;;;;;138.33;129.10;;;;;;;;;;5012824;28;20112;-56
2023/09/12 07:34:08;;;;;;;274.23;251.60;;;;;;;;;;5021255;28;20433;-58
2023/09/12 07:36:33;;;;;;;262.10;241.65;;;;;;;;;;5015765;28;20018;-57
2023/09/12 07:38:58;;;;;;;272.23;251.83;;;;;;;;;;5012756;28;20022;-57
2023/09/12 07:41:23;;;;;;;208.50;193.17;;;;;;;;;;5014653;28;20029;-57
2023/09/12 07:43:48;;;;;;;164.27;150.90;;;;;;;;;;5010391;28;20034;-57
2023/09/12 07:46:14;;;;;;;229.43;211.13;;;;;;;;;;5010155;28;20033;-58
2023/09/12 07:48:39;;;;;;;187.40;176.07;;;;;;;;;;5009719;28;20066;-58
2023/09/12 07:51:14;;;;;;;162.20;150.20;;;;;;;;;;5019361;28;20101;-57
2023/09/12 07:53:39;;;;;;;222.23;206.73;;;;;;;;;;5019238;28;20072;-58
2023/09/12 07:56:05;;;;;;;166.88;155.18;;;;;;;;;;5013029;28;20457;-57
2023/09/12 07:58:30;;;;;;;280.00;258.73;;;;;;;;;;5009735;28;20456;-57
2023/09/12 08:00:55;;;;;;;305.50;280.02;;;;;;;;;;5009807;28;20044;-56
2023/09/12 08:03:20;;;;;;;192.30;176.97;;;;;;;;;;5010357;28;20072;-58
2023/09/12 08:05:54;;;;;;;205.97;190.83;;;;;;;;;;5010042;28;20022;-57
2023/09/12 08:08:19;;;;;;;159.48;147.93;;;;;;;;;;5017048;28;20167;-57
2023/09/12 08:10:46;;;;;;;171.73;160.43;;;;;;;;;;5010441;28;20529;-57
2023/09/12 08:13:11;;;;;;;137.15;128.18;;;;;;;;;;5010274;28;20413;-57
2023/09/12 08:15:36;;;;;;;192.80;178.70;;;;;;;;;;5009971;28;20038;-57
2023/09/12 08:18:01;;;;;;;254.75;233.35;;;;;;;;;;5014711;28;20021;-57
2023/09/12 08:20:26;;;;;;;315.63;293.40;;;;;;;;;;5013645;28;20014;-57
2023/09/12 08:22:52;;;;;;;174.67;162.33;;;;;;;;;;5013250;28;20026;-57
2023/09/12 08:25:17;;;;;;;172.00;159.53;;;;;;;;;;5009917;28;20492;-57
2023/09/12 08:27:45;;;;;;;285.38;263.88;;;;;;;;;;5014943;28;20235;-57
2023/09/12 08:30:12;;;;;;;271.92;250.38;;;;;;;;;;5031692;28;20104;-57
2023/09/12 08:32:43;;;;;;;242.13;224.35;;;;;;;;;;5033200;28;20041;-56
2023/09/12 08:35:09;;;;;;;214.55;196.55;;;;;;;;;;5022505;28;20025;-57
2023/09/12 08:37:34;;;;;;;161.50;149.88;;;;;;;;;;5017769;28;20014;-57
2023/09/12 08:39:59;;;;;;;164.00;153.33;;;;;;;;;;5013232;28;20056;-57
2023/09/12 08:42:27;;;;;;;210.18;193.10;;;;;;;;;;5024085;28;20481;-57
2023/09/12 08:44:52;;;;;;;262.58;242.65;;;;;;;;;;5031080;28;20034;-57
2023/09/12 08:47:19;;;;;;;269.90;248.23;;;;;;;;;;5024027;28;20559;-57
2023/09/12 08:49:44;;;;;;;230.25;212.73;;;;;;;;;;5028006;28;20038;-57
2023/09/12 08:52:09;;;;;;;189.30;175.47;;;;;;;;;;5021994;28;20033;-58
2023/09/12 08:54:34;;;;;;;187.07;173.47;;;;;;;;;;5022178;28;20522;-57
2023/09/12 08:57:02;;;;;;;255.15;235.70;;;;;;;;;;5024839;28;20538;-58
2023/09/12 08:59:27;;;;;;;234.02;215.38;;;;;;;;;;5018608;28;20025;-58
2023/09/12 09:01:54;;;;;;;250.13;226.98;;;;;;;;;;5020037;28;20026;-58
2023/09/12 09:04:19;;;;;;;248.82;230.48;;;;;;;;;;5030713;28;20025;-57
2023/09/12 09:06:45;;;;;;;188.57;175.13;;;;;;;;;;5024862;28;20401;-57
2023/09/12 09:09:10;;;;;;;281.48;256.77;;;;;;;;;;5029210;28;20030;-57
2023/09/12 09:11:35;;;;;;;261.97;242.80;;;;;;;;;;5024278;28;20393;-58
2023/09/12 09:14:04;;;;;;;410.27;376.17;;;;;;;;;;5015905;28;20382;-57
2023/09/12 09:16:29;;;;;;;374.98;344.05;;;;;;;;;;5021754;28;20121;-57
2023/09/12 09:19:01;;;;;;;296.13;273.08;;;;;;;;;;5030034;28;20125;-57
2023/09/12 09:21:30;;;;;;;304.08;281.73;;;;;;;;;;5031812;28;20488;-57
2023/09/12 09:23:55;;;;;;;308.95;283.42;;;;;;;;;;5015974;28;20105;-57
2023/09/12 09:26:20;;;;;;;287.58;262.63;;;;;;;;;;5013714;28;20026;-57
2023/09/12 09:28:45;;;;;;;;;;;;;;;;;;5012882;28;20169;-58
2023/09/12 09:31:11;;;;;;;270.98;251.07;;;;;;;;;;5011844;28;19913;-58
2023/09/12 09:33:37;;;;;;;327.83;305.95;;;;;;;;;;5012417;28;20386;-57
2023/09/12 09:36:03;;;;;;;344.30;316.30;;;;;;;;;;5019004;28;20025;-57
2023/09/12 09:38:29;;;;;;;256.27;237.02;;;;;;;;;;5019555;28;20097;-56
2023/09/12 09:40:54;;;;;;;;;;;;;;;;;;5012287;28;20542;-57
2023/09/12 09:43:22;;;;;;;382.98;353.25;;;;;;;;;;5012098;28;20276;-56
2023/09/12 09:45:48;;;;;;;251.75;233.20;;;;;;;;;;5019479;28;20044;-57
2023/09/12 09:48:23;;;;;;;252.15;232.68;;;;;;;;;;5011755;28;20029;-57
2023/09/12 09:50:48;;;;;;;309.40;287.90;;;;;;;;;;5011244;28;20121;-56
2023/09/12 09:53:13;;;;;;;301.00;278.60;;;;;;;;;;5014433;28;20058;-58
2023/09/12 09:55:38;;;;;;;466.37;427.57;;;;;;;;;;5011923;28;20423;-57
2023/09/12 09:58:04;;;;;;;;;;;;;;;;;;5012664;28;20025;-56
2023/09/12 10:00:32;;;;;;;244.60;227.80;;;;;;;;;;5010746;28;20451;-56
2023/09/12 10:02:57;;;;;;;278.40;257.42;;;;;;;;;;5011904;28;20030;-57
2023/09/12 10:05:23;;;;;;;289.35;267.55;;;;;;;;;;5011644;28;20100;-58
2023/09/12 10:07:49;;;;;;;;;;;;;;;;;;5010966;28;20041;-57
2023/09/12 10:10:15;;;;;;;350.48;322.85;;;;;;;;;;5019533;28;19913;-57
2023/09/12 10:12:53;;;;;;;313.58;291.52;;;;;;;;;;5031522;28;20013;-58
2023/09/12 10:15:22;;;;;;;331.88;302.70;;;;;;;;;;5015041;28;20026;-57
2023/09/12 10:17:50;;;;;;;327.67;304.02;;;;;;;;;;5011663;28;20030;-58
2023/09/12 10:20:19;;;;;;;346.02;321.10;;;;;;;;;;5013772;28;20026;-58
2023/09/12 10:22:51;;;;;;;318.52;295.02;;;;;;;;;;5023231;28;20384;-58
2023/09/12 10:25:17;;;;;;;378.45;349.98;;;;;;;;;;5016275;28;20095;-58
2023/09/12 10:27:42;;;;;;;;;;;;;;;;;;5020143;28;20366;-57
2023/09/12 10:30:08;;;;;;;373.83;344.88;;;;;;;;;;5010398;28;20012;-58
2023/09/12 10:32:33;;;;;;;;;;;;;;;;;;5012108;28;20030;-58
2023/09/12 10:34:58;;;;;;;331.40;304.80;;;;;;;;;;5011504;28;19906;-57
2023/09/12 10:37:23;;;;;;;;;;;;;;;;;;5017466;28;20064;-56
2023/09/12 10:39:49;;;;;;;328.67;303.35;;;;;;;;;;5012499;28;19913;-57
2023/09/12 10:42:14;;;;;;;;;;;;;;;;;;5013229;28;20022;-57
2023/09/12 10:44:39;;;;;;;478.87;442.40;;;;;;;;;;5018565;28;19940;-58
2023/09/12 10:47:05;;;;;;;429.53;394.00;;;;;;;;;;5011345;28;20468;-58
2023/09/12 10:49:30;;;;;;;425.90;390.90;;;;;;;;;;5018295;28;20117;-57
2023/09/12 10:51:55;;;;;;;;;;;;;;;;;;5019992;28;20104;-57
2023/09/12 10:54:39;;;;;;;288.40;268.13;;;;;;;;;;5024312;28;19905;-57
2023/09/12 10:57:08;;;;;;;345.08;318.42;;;;;;;;;;5010933;28;20022;-57
2023/09/12 10:59:37;;;;;;;365.63;337.63;;;;;;;;;;5010556;28;20014;-58
2023/09/12 11:02:22;;;;;;;372.85;343.70;;;;;;;;;;5012426;28;20030;-56
2023/09/12 11:04:47;;;;;;;466.80;428.48;;;;;;;;;;5009703;28;20381;-58
2023/09/12 11:07:12;;;;;;;;;;;;;;;;;;5024802;28;20025;-57
2023/09/12 11:09:39;;;;;;;381.85;351.25;;;;;;;;;;5025377;28;19936;-58
2023/09/12 11:12:04;;;;;;;;;;;;;;;;;;5009762;28;20549;-57
2023/09/12 11:14:30;;;;;;;368.17;340.33;;;;;;;;;;5016968;28;20061;-58
2023/09/12 11:16:55;;;;;;;;;;;;;;;;;;5017814;28;20021;-57
2023/09/12 11:19:25;;;;;;;534.72;491.08;;;;;;;;;;5023003;28;20003;-57
2023/09/12 11:21:52;;;;;;;382.80;352.27;;;;;;;;;;5020680;28;20036;-56
2023/09/12 11:24:17;;;;;;;345.55;318.35;;;;;;;;;;5017603;28;20057;-57
2023/09/12 11:26:43;;;;;;;;;;;;;;;;;;5018142;28;20026;-57
2023/09/12 11:29:12;;;;;;;453.20;420.57;;;;;;;;;;5018771;28;20266;-56
2023/09/12 11:31:41;;;;;;;648.47;594.00;;;;;;;;;;5029319;28;20397;-57
2023/09/12 11:34:08;;;;;;;439.65;405.73;;;;;;;;;;5024165;28;20036;-56
2023/09/12 11:36:37;;;;;;;451.48;415.05;;;;;;;;;;5020459;28;20881;-57
2023/09/12 11:39:21;;;;;;;411.35;378.77;;;;;;;;;;5014532;28;20057;-57
2023/09/12 11:41:46;;;;;;;470.83;434.25;;;;;;;;;;5026611;28;20029;-58
2023/09/12 11:44:11;;;;;;;;;;;;;;;;;;5013733;28;20028;-57
2023/09/12 11:46:37;;;;;;;331.10;306.20;;;;;;;;;;5015453;28;19937;-57
2023/09/12 11:49:02;;;;;;;428.42;385.05;;;;;;;;;;5013181;28;20100;-56
2023/09/12 11:51:29;;;;;;;;;;;;;;;;;;5016243;28;20097;-58
2023/09/12 11:53:55;;;;;;;376.60;348.50;;;;;;;;;;5023482;28;19905;-57
2023/09/12 11:56:20;;;;;;;;;;;;;;;;;;5023541;28;20021;-58
2023/09/12 11:58:46;;;;;;;499.38;459.70;;;;;;;;;;5043464;28;19904;-57
2023/09/12 12:01:11;;;;;;;;;;;;;;;;;;5050523;28;20021;-56
2023/09/12 12:03:36;;;;;;;548.28;501.90;;;;;;;;;;5038532;28;20281;-56
2023/09/12 12:06:01;;;;;;;;;;;;;;;;;;5038717;28;20056;-56
2023/09/12 12:08:26;;;;;;;536.88;493.33;;;;;;;;;;5026499;28;20004;-56
2023/09/12 12:10:51;;;;;;;;;;;;;;;;;;5033781;28;20029;-55
2023/09/12 12:13:17;;;;;;;577.65;525.40;;;;;;;;;;5014095;28;19905;-56
2023/09/12 12:15:42;;;;;;;;;;;;;;;;;;5015891;28;20100;-57
2023/09/12 12:18:07;;;;;;;557.67;512.15;;;;;;;;;;5015579;28;19905;-57
2023/09/12 12:20:33;;;;;;;474.50;435.40;;;;;;;;;;5020754;28;20022;-57
2023/09/12 12:22:58;;;;;;;503.80;463.03;;;;;;;;;;5029925;28;20014;-56
2023/09/12 12:25:24;;;;;;;417.70;385.77;;;;;;;;;;5023703;28;20164;-57
2023/09/12 12:27:49;;;;;;;372.08;344.52;;;;;;;;;;5025174;28;20156;-57
2023/09/12 12:30:15;;;;;;;;;;;;;;;;;;5016152;28;20128;-56
2023/09/12 12:32:41;;;;;;;427.47;392.37;;;;;;;;;;5013642;28;19909;-55
2023/09/12 12:35:07;;;;;;;435.45;405.67;;;;;;;;;;5019499;28;20060;-55
2023/09/12 12:37:32;;;;;;;475.00;437.85;;;;;;;;;;5025027;28;20501;-56
2023/09/12 12:39:58;;;;;;;500.45;453.17;;;;;;;;;;5039271;28;20021;-56
2023/09/12 12:42:24;;;;;;;447.80;410.48;;;;;;;;;;5050419;28;20467;-56
2023/09/12 12:44:56;;;;;;;430.70;397.15;;;;;;;;;;5031991;28;20017;-57
2023/09/12 12:47:21;;;;;;;450.55;413.55;;;;;;;;;;5042291;28;20101;-57
2023/09/12 12:49:50;;;;;;;424.25;391.25;;;;;;;;;;5018240;28;20116;-56
2023/09/12 12:52:15;;;;;;;381.13;352.15;;;;;;;;;;5039746;28;20021;-57
2023/09/12 12:54:41;;;;;;;574.83;523.77;;;;;;;;;;5038309;28;20036;-57
2023/09/12 12:57:12;;;;;;;470.63;432.08;;;;;;;;;;5014459;28;20025;-55
2023/09/12 12:59:38;;;;;;;442.13;404.35;;;;;;;;;;5039828;28;20030;-56
2023/09/12 13:02:03;;;;;;;407.42;376.92;;;;;;;;;;5014810;28;20024;-57
2023/09/12 13:04:34;;;;;;;413.38;382.52;;;;;;;;;;5012717;28;20073;-58
2023/09/12 13:06:59;;;;;;;394.80;364.58;;;;;;;;;;5015435;28;20489;-57
2023/09/12 13:09:25;;;;;;;495.60;456.80;;;;;;;;;;5015801;28;20036;-57
2023/09/12 13:11:50;;;;;;;470.87;435.07;;;;;;;;;;5017208;28;20105;-57
2023/09/12 13:14:15;;;;;;;418.83;387.17;;;;;;;;;;5013119;28;20040;-58
2023/09/12 13:16:40;;;;;;;502.67;458.57;;;;;;;;;;5014962;28;20488;-58
2023/09/12 13:19:06;;;;;;;413.90;380.83;;;;;;;;;;5018418;28;20025;-58
2023/09/12 13:21:32;;;;;;;437.63;405.00;;;;;;;;;;5012556;28;20021;-57
2023/09/12 13:23:57;;;;;;;538.13;488.48;;;;;;;;;;5028322;28;20025;-57
2023/09/12 13:26:22;;;;;;;523.40;485.50;;;;;;;;;;5020900;28;20095;-57
2023/09/12 13:28:48;;;;;;;514.93;476.80;;;;;;;;;;5012660;28;20044;-57
2023/09/12 13:31:13;;;;;;;500.40;463.30;;;;;;;;;;5016049;28;20053;-57
2023/09/12 13:33:38;;;;;;;411.37;378.83;;;;;;;;;;5016152;28;20098;-57
2023/09/12 13:36:03;;;;;;;422.50;391.83;;;;;;;;;;5022594;28;20025;-56
2023/09/12 13:38:29;;;;;;;520.97;477.95;;;;;;;;;;5013374;28;20036;-56
2023/09/12 13:40:54;;;;;;;511.97;471.50;;;;;;;;;;5016401;28;20025;-56
2023/09/12 13:43:19;;;;;;;456.23;422.35;;;;;;;;;;5016902;28;20021;-57
2023/09/12 13:45:45;;;;;;;420.17;388.25;;;;;;;;;;5018910;28;20033;-57
2023/09/12 13:48:12;;;;;;;577.77;535.03;;;;;;;;;;5028677;28;20520;-57
2023/09/12 13:50:37;;;;;;;446.85;411.63;;;;;;;;;;5026974;28;20033;-58
2023/09/12 13:53:08;;;;;;;469.20;435.37;;;;;;;;;;5024580;28;20104;-57
2023/09/12 13:55:34;;;;;;;443.67;409.63;;;;;;;;;;5027991;28;20021;-57
2023/09/12 13:58:01;;;;;;;440.33;408.23;;;;;;;;;;5022518;28;20694;-57
2023/09/12 14:00:26;;;;;;;470.77;437.48;;;;;;;;;;5018608;28;20169;-56